createdAt,value
2018-08-23T00:00:50.653Z,41.00
2018-08-23T00:01:50.633Z,40.70
2018-08-23T00:02:50.615Z,40.40
2018-08-23T00:03:50.597Z,40.50
2018-08-23T00:04:50.581Z,38.40
2018-08-23T00:05:50.561Z,39.70
2018-08-23T00:06:50.539Z,38.20
2018-08-23T00:07:50.521Z,39.30
2018-08-23T00:08:50.509Z,39.50
2018-08-23T00:09:50.484Z,39.70
2018-08-23T00:10:50.464Z,40.90
2018-08-23T00:11:50.447Z,38.90
2018-08-23T00:12:50.429Z,40.00
2018-08-23T00:13:50.454Z,40.10
2018-08-23T00:14:50.390Z,39.30
2018-08-23T00:15:50.397Z,39.70
2018-08-23T00:16:50.400Z,39.90
2018-08-23T00:17:50.335Z,38.90
2018-08-23T00:18:50.316Z,38.60
2018-08-23T00:19:50.295Z,36.40
2018-08-23T00:20:50.279Z,38.20
2018-08-23T00:21:50.261Z,36.50
2018-08-23T00:22:50.241Z,39.10
2018-08-23T00:23:50.221Z,37.30
2018-08-23T00:24:50.201Z,38.30
2018-08-23T00:25:50.181Z,38.10
2018-08-23T00:26:50.163Z,37.70
2018-08-23T00:27:50.146Z,38.70
2018-08-23T00:28:50.127Z,38.20
2018-08-23T00:29:50.106Z,38.60
2018-08-23T00:30:50.090Z,38.90
2018-08-23T00:31:50.070Z,39.70
2018-08-23T00:32:50.057Z,37.20
2018-08-23T00:33:50.032Z,39.90
2018-08-23T00:34:50.015Z,39.00
2018-08-23T00:35:49.997Z,37.70
2018-08-23T00:36:49.975Z,37.70
2018-08-23T00:37:49.955Z,37.50
2018-08-23T00:38:49.938Z,38.60
2018-08-23T00:39:49.920Z,37.50
2018-08-23T00:40:49.900Z,38.10
2018-08-23T00:41:49.885Z,38.70
2018-08-23T00:42:49.863Z,38.30
2018-08-23T00:43:49.848Z,37.40
2018-08-23T00:44:49.822Z,38.10
2018-08-23T00:45:49.805Z,37.50
2018-08-23T00:46:49.787Z,37.50
2018-08-23T00:47:49.771Z,36.90
2018-08-23T00:48:49.751Z,39.80
2018-08-23T00:49:49.722Z,37.60
2018-08-23T00:50:49.712Z,36.00
2018-08-23T00:51:49.693Z,38.20
2018-08-23T00:52:49.674Z,38.40
2018-08-23T00:53:49.654Z,37.20
2018-08-23T00:54:49.636Z,37.50
2018-08-23T00:55:49.615Z,37.70
2018-08-23T00:56:49.596Z,36.50
2018-08-23T00:57:49.577Z,40.10
2018-08-23T00:58:49.557Z,38.70
2018-08-23T00:59:49.542Z,40.10
2018-08-23T01:00:49.519Z,37.10
2018-08-23T01:01:49.501Z,36.30
2018-08-23T01:02:49.484Z,38.10
2018-08-23T01:03:49.466Z,37.90
2018-08-23T01:04:49.444Z,37.30
2018-08-23T01:05:49.427Z,37.60
2018-08-23T01:06:49.405Z,38.70
2018-08-23T01:07:49.390Z,37.00
2018-08-23T01:08:49.368Z,38.30
2018-08-23T01:09:49.342Z,39.80
2018-08-23T01:10:49.330Z,36.40
2018-08-23T01:11:49.310Z,35.20
2018-08-23T01:12:49.290Z,36.50
2018-08-23T01:13:49.268Z,37.40
2018-08-23T01:14:49.250Z,38.30
2018-08-23T01:15:49.233Z,37.70
2018-08-23T01:16:49.213Z,36.70
2018-08-23T01:17:49.190Z,36.80
2018-08-23T01:18:49.179Z,38.10
2018-08-23T01:19:49.162Z,38.10
2018-08-23T01:20:49.140Z,36.60
2018-08-23T01:21:49.119Z,36.90
2018-08-23T01:22:49.101Z,38.80
2018-08-23T01:23:49.080Z,37.80
2018-08-23T01:24:49.058Z,37.70
2018-08-23T01:25:49.039Z,36.90
2018-08-23T01:26:49.022Z,37.30
2018-08-23T01:27:49.003Z,36.80
2018-08-23T01:28:48.981Z,37.10
2018-08-23T01:29:48.963Z,38.20
2018-08-23T01:30:48.946Z,36.50
2018-08-23T01:31:48.925Z,36.70
2018-08-23T01:32:48.906Z,35.70
2018-08-23T01:33:48.888Z,36.50
2018-08-23T01:34:48.865Z,35.10
2018-08-23T01:35:48.845Z,36.40
2018-08-23T01:36:48.831Z,37.40
2018-08-23T01:37:48.809Z,36.90
2018-08-23T01:38:48.787Z,35.50
2018-08-23T01:39:48.778Z,37.00
2018-08-23T01:40:48.750Z,36.50
2018-08-23T01:41:48.731Z,35.60
2018-08-23T01:42:48.711Z,36.30
2018-08-23T01:43:48.692Z,36.40
2018-08-23T01:44:48.671Z,36.00
2018-08-23T01:45:48.653Z,34.80
2018-08-23T01:46:48.634Z,37.40
2018-08-23T01:47:48.615Z,37.90
2018-08-23T01:48:48.595Z,36.20
2018-08-23T01:49:48.570Z,38.30
2018-08-23T01:50:48.555Z,37.50
2018-08-23T01:51:48.537Z,37.10
2018-08-23T01:52:48.519Z,36.40
2018-08-23T01:53:48.497Z,37.80
2018-08-23T01:54:48.476Z,38.10
2018-08-23T01:55:48.459Z,36.30
2018-08-23T01:56:48.437Z,35.60
2018-08-23T01:57:48.422Z,35.40
2018-08-23T01:58:48.401Z,36.80
2018-08-23T01:59:48.380Z,37.70
2018-08-23T02:00:48.360Z,38.50
2018-08-23T02:01:48.343Z,39.40
2018-08-23T02:02:48.325Z,39.10
2018-08-23T02:03:48.303Z,38.40
2018-08-23T02:04:48.284Z,39.60
2018-08-23T02:05:48.261Z,38.40
2018-08-23T02:06:48.245Z,37.30
2018-08-23T02:07:48.224Z,40.50
2018-08-23T02:08:48.205Z,39.70
2018-08-23T02:09:48.183Z,37.30
2018-08-23T02:10:48.166Z,37.60
2018-08-23T02:11:48.146Z,38.10
2018-08-23T02:12:48.127Z,37.50
2018-08-23T02:13:48.104Z,36.40
2018-08-23T02:14:48.087Z,37.80
2018-08-23T02:15:48.066Z,38.80
2018-08-23T02:16:48.047Z,40.10
2018-08-23T02:17:48.027Z,38.90
2018-08-23T02:18:48.008Z,37.20
2018-08-23T02:19:47.988Z,39.70
2018-08-23T02:20:47.963Z,38.80
2018-08-23T02:21:47.947Z,38.90
2018-08-23T02:22:47.930Z,38.00
2018-08-23T02:23:47.906Z,38.20
2018-08-23T02:24:47.887Z,38.50
2018-08-23T02:25:47.868Z,39.40
2018-08-23T02:26:47.856Z,39.90
2018-08-23T02:27:47.826Z,38.90
2018-08-23T02:28:47.806Z,36.40
2018-08-23T02:29:47.787Z,38.30
2018-08-23T02:30:47.773Z,38.10
2018-08-23T02:31:47.753Z,37.50
2018-08-23T02:32:47.734Z,38.30
2018-08-23T02:33:47.712Z,38.40
2018-08-23T02:34:47.694Z,39.40
2018-08-23T02:35:47.672Z,39.10
2018-08-23T02:36:47.655Z,39.50
2018-08-23T02:37:47.633Z,41.30
2018-08-23T02:38:47.616Z,39.90
2018-08-23T02:39:47.593Z,39.60
2018-08-23T02:40:47.579Z,40.40
2018-08-23T02:41:47.558Z,40.70
2018-08-23T02:42:47.536Z,40.40
2018-08-23T02:43:47.516Z,40.70
2018-08-23T02:44:47.653Z,40.00
2018-08-23T02:45:47.473Z,39.80
2018-08-23T02:46:47.454Z,40.30
2018-08-23T02:47:47.436Z,38.90
2018-08-23T02:48:47.413Z,39.90
2018-08-23T02:49:47.395Z,38.60
2018-08-23T02:50:47.377Z,40.30
2018-08-23T02:51:47.361Z,39.90
2018-08-23T02:52:47.335Z,40.20
2018-08-23T02:53:47.314Z,40.00
2018-08-23T02:54:47.291Z,41.50
2018-08-23T02:55:47.273Z,41.10
2018-08-23T02:56:47.256Z,40.80
2018-08-23T02:57:47.234Z,40.10
2018-08-23T02:58:47.215Z,41.40
2018-08-23T02:59:47.197Z,42.70
2018-08-23T03:00:47.176Z,42.90
2018-08-23T03:01:47.158Z,43.00
2018-08-23T03:02:47.142Z,43.80
2018-08-23T03:03:47.123Z,42.10
2018-08-23T03:04:47.096Z,43.00
2018-08-23T03:05:47.079Z,42.80
2018-08-23T03:06:47.055Z,42.20
2018-08-23T03:07:47.030Z,43.30
2018-08-23T03:08:47.015Z,43.00
2018-08-23T03:09:46.998Z,43.70
2018-08-23T03:10:46.970Z,42.90
2018-08-23T03:11:46.960Z,43.80
2018-08-23T03:12:46.936Z,43.80
2018-08-23T03:13:46.915Z,43.90
2018-08-23T03:14:46.896Z,40.90
2018-08-23T03:15:46.875Z,43.70
2018-08-23T03:16:46.855Z,42.10
2018-08-23T03:17:46.835Z,43.00
2018-08-23T03:18:46.818Z,41.70
2018-08-23T03:19:46.798Z,45.20
2018-08-23T03:20:46.775Z,44.30
2018-08-23T03:21:46.753Z,45.70
2018-08-23T03:22:46.738Z,45.20
2018-08-23T03:23:46.721Z,42.30
2018-08-23T03:24:46.699Z,43.90
2018-08-23T03:25:46.674Z,40.30
2018-08-23T03:26:46.653Z,43.90
2018-08-23T03:27:46.636Z,42.70
2018-08-23T03:28:46.617Z,43.60
2018-08-23T03:29:46.594Z,45.40
2018-08-23T03:30:46.573Z,43.20
2018-08-23T03:31:46.555Z,41.50
2018-08-23T03:32:46.533Z,45.20
2018-08-23T03:33:46.512Z,42.80
2018-08-23T03:34:46.491Z,43.90
2018-08-23T03:35:46.474Z,43.00
2018-08-23T03:36:46.451Z,44.20
2018-08-23T03:37:46.435Z,48.40
2018-08-23T03:38:46.418Z,46.20
2018-08-23T03:39:46.390Z,44.70
2018-08-23T03:40:46.372Z,45.50
2018-08-23T03:41:46.352Z,47.00
2018-08-23T03:42:46.331Z,45.80
2018-08-23T03:43:46.313Z,45.40
2018-08-23T03:44:46.290Z,47.30
2018-08-23T03:45:46.270Z,46.40
2018-08-23T03:46:46.258Z,45.90
2018-08-23T03:47:46.231Z,46.90
2018-08-23T03:48:46.209Z,47.60
2018-08-23T03:49:46.189Z,45.50
2018-08-23T03:50:46.169Z,44.60
2018-08-23T03:51:46.151Z,45.40
2018-08-23T03:52:46.128Z,46.00
2018-08-23T03:53:46.112Z,44.60
2018-08-23T03:54:46.087Z,44.30
2018-08-23T03:55:46.064Z,46.00
2018-08-23T03:56:46.046Z,49.80
2018-08-23T03:57:46.025Z,50.10
2018-08-23T03:58:46.008Z,48.20
2018-08-23T03:59:45.987Z,50.20
2018-08-23T04:00:45.965Z,48.70
2018-08-23T04:01:45.944Z,50.20
2018-08-23T04:02:45.924Z,50.10
2018-08-23T04:03:45.905Z,51.20
2018-08-23T04:04:45.886Z,50.80
2018-08-23T04:05:45.869Z,50.90
2018-08-23T04:06:45.843Z,50.80
2018-08-23T04:07:45.823Z,50.40
2018-08-23T04:08:45.802Z,49.30
2018-08-23T04:09:45.783Z,50.70
2018-08-23T04:10:45.759Z,49.90
2018-08-23T04:11:45.746Z,51.10
2018-08-23T04:12:45.723Z,53.50
2018-08-23T04:13:45.701Z,51.40
2018-08-23T04:14:45.679Z,50.70
2018-08-23T04:15:45.658Z,53.40
2018-08-23T04:16:45.638Z,52.80
2018-08-23T04:17:45.616Z,48.30
2018-08-23T04:18:45.596Z,50.10
2018-08-23T04:19:45.577Z,51.20
2018-08-23T04:20:45.556Z,46.40
2018-08-23T04:21:45.532Z,51.80
2018-08-23T04:22:45.528Z,50.20
2018-08-23T04:23:45.497Z,47.60
2018-08-23T04:24:45.476Z,49.00
2018-08-23T04:25:45.452Z,49.20
2018-08-23T04:26:45.442Z,50.70
2018-08-23T04:27:45.412Z,48.50
2018-08-23T04:28:45.397Z,50.20
2018-08-23T04:29:45.372Z,49.90
2018-08-23T04:30:45.352Z,50.30
2018-08-23T04:31:45.332Z,51.10
2018-08-23T04:32:45.312Z,51.10
2018-08-23T04:33:45.289Z,51.10
2018-08-23T04:34:45.270Z,50.20
2018-08-23T04:35:45.251Z,49.70
2018-08-23T04:36:45.229Z,52.00
2018-08-23T04:37:45.207Z,48.30
2018-08-23T04:38:45.190Z,47.70
2018-08-23T04:39:45.168Z,47.10
2018-08-23T04:40:45.152Z,47.70
2018-08-23T04:41:45.128Z,49.90
2018-08-23T04:42:45.107Z,47.30
2018-08-23T04:43:45.087Z,48.40
2018-08-23T04:44:45.065Z,46.90
2018-08-23T04:45:45.045Z,47.90
2018-08-23T04:46:45.028Z,46.00
2018-08-23T04:47:45.005Z,47.50
2018-08-23T04:48:44.984Z,47.30
2018-08-23T04:49:44.965Z,46.50
2018-08-23T04:50:44.943Z,46.60
2018-08-23T04:51:44.961Z,46.50
2018-08-23T04:52:44.901Z,49.50
2018-08-23T04:53:44.882Z,51.80
2018-08-23T04:54:44.862Z,48.00
2018-08-23T04:55:44.840Z,48.60
2018-08-23T04:56:44.821Z,47.20
2018-08-23T04:57:44.802Z,47.90
2018-08-23T04:58:44.782Z,46.60
2018-08-23T04:59:44.760Z,43.60
2018-08-23T05:00:44.732Z,44.80
2018-08-23T05:01:44.717Z,47.10
2018-08-23T05:02:44.697Z,44.10
2018-08-23T05:03:44.683Z,41.60
2018-08-23T05:04:44.655Z,42.60
2018-08-23T05:05:44.638Z,42.40
2018-08-23T05:06:44.617Z,40.50
2018-08-23T05:07:44.596Z,41.40
2018-08-23T05:08:44.575Z,42.50
2018-08-23T05:09:44.556Z,42.80
2018-08-23T05:10:44.534Z,44.20
2018-08-23T05:11:44.515Z,44.80
2018-08-23T05:12:44.495Z,46.20
2018-08-23T05:13:44.478Z,47.50
2018-08-23T05:14:44.453Z,49.70
2018-08-23T05:15:44.433Z,50.40
2018-08-23T05:16:44.413Z,47.50
2018-08-23T05:17:44.399Z,47.50
2018-08-23T05:18:44.367Z,47.70
2018-08-23T05:19:44.353Z,47.50
2018-08-23T05:20:44.329Z,50.10
2018-08-23T05:21:44.309Z,46.80
2018-08-23T05:22:44.293Z,47.20
2018-08-23T05:23:44.271Z,45.60
2018-08-23T05:24:44.247Z,43.50
2018-08-23T05:25:44.228Z,45.20
2018-08-23T05:26:44.211Z,45.20
2018-08-23T05:27:44.189Z,44.00
2018-08-23T05:28:44.170Z,44.60
2018-08-23T05:29:44.199Z,44.50
2018-08-23T05:30:44.133Z,45.40
2018-08-23T05:31:44.112Z,41.40
2018-08-23T05:32:44.088Z,43.10
2018-08-23T05:33:44.069Z,42.50
2018-08-23T05:34:44.050Z,43.20
2018-08-23T05:35:44.028Z,43.10
2018-08-23T05:36:44.006Z,41.40
2018-08-23T05:37:43.987Z,40.70
2018-08-23T05:38:43.974Z,40.90
2018-08-23T05:39:43.947Z,41.90
2018-08-23T05:40:43.928Z,41.70
2018-08-23T05:41:43.905Z,42.10
2018-08-23T05:42:43.892Z,40.00
2018-08-23T05:43:43.874Z,40.70
2018-08-23T05:44:43.848Z,41.30
2018-08-23T05:45:43.825Z,42.40
2018-08-23T05:46:43.805Z,39.90
2018-08-23T05:47:43.890Z,40.40
2018-08-23T05:48:43.765Z,40.40
2018-08-23T05:49:43.753Z,38.40
2018-08-23T05:50:43.726Z,38.90
2018-08-23T05:51:43.709Z,38.90
2018-08-23T05:52:43.688Z,39.70
2018-08-23T05:53:43.672Z,37.70
2018-08-23T05:54:43.654Z,38.80
2018-08-23T05:55:43.625Z,40.40
2018-08-23T05:56:43.607Z,37.90
2018-08-23T05:57:43.588Z,37.70
2018-08-23T05:58:43.574Z,37.90
2018-08-23T05:59:43.548Z,37.80
2018-08-23T06:00:43.532Z,36.50
2018-08-23T06:01:43.510Z,37.00
2018-08-23T06:02:43.530Z,37.90
2018-08-23T06:03:43.464Z,36.20
2018-08-23T06:04:43.452Z,35.60
2018-08-23T06:05:43.430Z,38.20
2018-08-23T06:06:43.412Z,36.50
2018-08-23T06:07:43.388Z,36.60
2018-08-23T06:08:43.369Z,37.20
2018-08-23T06:09:43.356Z,37.70
2018-08-23T06:10:43.335Z,34.70
2018-08-23T06:11:43.315Z,36.10
2018-08-23T06:12:43.295Z,36.30
2018-08-23T06:13:43.275Z,36.20
2018-08-23T06:14:43.254Z,36.20
2018-08-23T06:15:43.233Z,35.80
2018-08-23T06:16:43.215Z,35.30
2018-08-23T06:17:43.197Z,35.80
2018-08-23T06:18:43.178Z,37.00
2018-08-23T06:19:43.157Z,34.10
2018-08-23T06:20:43.137Z,33.60
2018-08-23T06:21:43.119Z,33.80
2018-08-23T06:22:43.099Z,33.10
2018-08-23T06:23:43.081Z,33.90
2018-08-23T06:24:43.056Z,33.90
2018-08-23T06:25:43.044Z,34.70
2018-08-23T06:26:43.026Z,35.00
2018-08-23T06:27:43.004Z,33.30
2018-08-23T06:28:42.984Z,32.30
2018-08-23T06:29:42.965Z,33.80
2018-08-23T06:30:42.944Z,34.00
2018-08-23T06:31:42.931Z,32.40
2018-08-23T06:32:42.938Z,32.40
2018-08-23T06:33:42.967Z,31.70
2018-08-23T06:34:42.871Z,31.80
2018-08-23T06:35:42.941Z,32.30
2018-08-23T06:36:42.831Z,31.20
2018-08-23T06:37:42.823Z,31.00
2018-08-23T06:38:42.875Z,33.60
2018-08-23T06:39:42.774Z,30.80
2018-08-23T06:40:42.762Z,32.60
2018-08-23T06:41:42.737Z,33.60
2018-08-23T06:42:42.719Z,33.20
2018-08-23T06:43:42.716Z,32.70
2018-08-23T06:44:42.683Z,33.40
2018-08-23T06:45:42.660Z,32.60
2018-08-23T06:46:42.639Z,32.90
2018-08-23T06:47:42.624Z,30.70
2018-08-23T06:48:42.633Z,32.80
2018-08-23T06:49:42.586Z,31.60
2018-08-23T06:50:42.568Z,31.20
2018-08-23T06:51:42.549Z,32.50
2018-08-23T06:52:42.529Z,30.60
2018-08-23T06:53:42.512Z,33.40
2018-08-23T06:54:42.491Z,31.20
2018-08-23T06:55:42.472Z,31.40
2018-08-23T06:56:42.451Z,32.50
2018-08-23T06:57:42.436Z,32.00
2018-08-23T06:58:42.445Z,32.30
2018-08-23T06:59:42.392Z,31.60
2018-08-23T07:00:42.471Z,34.70
2018-08-23T07:01:42.460Z,32.80
2018-08-23T07:02:42.346Z,35.40
2018-08-23T07:03:42.318Z,33.90
2018-08-23T07:04:42.303Z,33.20
2018-08-23T07:05:42.283Z,32.00
2018-08-23T07:06:42.345Z,31.70
2018-08-23T07:07:42.328Z,33.20
2018-08-23T07:08:42.230Z,32.50
2018-08-23T07:09:42.204Z,31.00
2018-08-23T07:10:42.232Z,33.70
2018-08-23T07:11:42.211Z,31.70
2018-08-23T07:12:42.151Z,33.20
2018-08-23T07:13:42.137Z,34.10
2018-08-23T07:14:42.115Z,32.30
2018-08-23T07:15:42.093Z,33.40
2018-08-23T07:16:42.077Z,32.30
2018-08-23T07:17:42.115Z,32.60
2018-08-23T07:18:42.101Z,32.90
2018-08-23T07:19:42.017Z,32.80
2018-08-23T07:20:42.006Z,32.80
2018-08-23T07:21:41.985Z,31.60
2018-08-23T07:22:41.966Z,32.40
2018-08-23T07:23:41.949Z,30.40
2018-08-23T07:24:41.925Z,30.90
2018-08-23T07:25:41.911Z,33.50
2018-08-23T07:26:41.892Z,32.50
2018-08-23T07:27:41.878Z,31.50
2018-08-23T07:28:41.854Z,32.50
2018-08-23T07:29:41.862Z,31.90
2018-08-23T07:30:41.816Z,31.00
2018-08-23T07:31:41.802Z,30.70
2018-08-23T07:32:41.777Z,30.80
2018-08-23T07:33:41.763Z,29.70
2018-08-23T07:34:41.785Z,32.20
2018-08-23T07:35:41.726Z,31.90
2018-08-23T07:36:41.723Z,32.20
2018-08-23T07:37:41.698Z,32.10
2018-08-23T07:38:41.673Z,32.00
2018-08-23T07:39:41.652Z,30.10
2018-08-23T07:40:41.635Z,30.30
2018-08-23T07:41:41.619Z,29.50
2018-08-23T07:42:41.594Z,29.70
2018-08-23T07:43:41.577Z,29.40
2018-08-23T07:44:41.564Z,30.70
2018-08-23T07:45:41.546Z,29.70
2018-08-23T07:46:41.523Z,27.90
2018-08-23T07:47:41.505Z,28.60
2018-08-23T07:48:41.569Z,26.80
2018-08-23T07:49:41.472Z,28.70
2018-08-23T07:50:41.448Z,28.60
2018-08-23T07:51:41.478Z,27.10
2018-08-23T07:52:41.450Z,28.10
2018-08-23T07:53:41.398Z,27.50
2018-08-23T07:54:41.376Z,27.40
2018-08-23T07:55:41.360Z,28.00
2018-08-23T07:56:41.347Z,28.50
2018-08-23T07:57:41.327Z,27.40
2018-08-23T07:58:41.310Z,26.70
2018-08-23T07:59:41.288Z,25.80
2018-08-23T08:00:41.270Z,23.80
2018-08-23T08:01:41.255Z,23.20
2018-08-23T08:02:41.231Z,24.40
2018-08-23T08:03:41.218Z,22.40
2018-08-23T08:04:41.202Z,25.20
2018-08-23T08:05:41.183Z,24.00
2018-08-23T08:06:41.165Z,22.20
2018-08-23T08:07:41.150Z,23.70
2018-08-23T08:08:41.123Z,22.30
2018-08-23T08:09:41.111Z,22.60
2018-08-23T08:10:41.090Z,21.80
2018-08-23T08:11:41.143Z,21.10
2018-08-23T08:12:41.059Z,23.10
2018-08-23T08:13:41.073Z,21.60
2018-08-23T08:14:41.059Z,22.20
2018-08-23T08:15:41.009Z,20.70
2018-08-23T08:16:40.985Z,21.20
2018-08-23T08:17:40.971Z,20.60
2018-08-23T08:18:40.952Z,20.80
2018-08-23T08:19:40.932Z,20.60
2018-08-23T08:20:40.913Z,21.90
2018-08-23T08:21:40.986Z,21.60
2018-08-23T08:22:40.890Z,22.40
2018-08-23T08:23:40.864Z,20.70
2018-08-23T08:24:40.934Z,22.30
2018-08-23T08:25:40.877Z,21.30
2018-08-23T08:26:40.879Z,20.40
2018-08-23T08:27:40.881Z,20.80
2018-08-23T08:28:40.848Z,22.30
2018-08-23T08:29:40.885Z,22.60
2018-08-23T08:30:40.798Z,19.80
2018-08-23T08:31:40.876Z,19.80
2018-08-23T08:32:40.817Z,18.50
2018-08-23T08:33:40.793Z,20.00
2018-08-23T08:34:40.787Z,19.00
2018-08-23T08:35:40.664Z,19.20
2018-08-23T08:36:40.642Z,18.70
2018-08-23T08:37:40.628Z,17.20
2018-08-23T08:38:40.610Z,17.30
2018-08-23T08:39:40.660Z,17.40
2018-08-23T08:40:40.594Z,17.60
2018-08-23T08:41:40.568Z,16.00
2018-08-23T08:42:40.551Z,17.10
2018-08-23T08:43:40.583Z,16.90
2018-08-23T08:44:40.514Z,16.40
2018-08-23T08:45:40.543Z,16.90
2018-08-23T08:46:40.485Z,16.30
2018-08-23T08:47:40.471Z,17.40
2018-08-23T08:48:40.452Z,15.40
2018-08-23T08:49:40.437Z,14.10
2018-08-23T08:50:40.431Z,14.30
2018-08-23T08:51:40.405Z,14.20
2018-08-23T08:52:40.422Z,13.90
2018-08-23T08:53:40.384Z,12.60
2018-08-23T08:54:40.364Z,13.90
2018-08-23T08:55:40.383Z,12.90
2018-08-23T08:56:40.402Z,13.80
2018-08-23T08:57:40.378Z,13.60
2018-08-23T08:58:40.317Z,12.30
2018-08-23T08:59:40.287Z,13.60
2018-08-23T09:00:40.278Z,12.60
2018-08-23T09:01:40.277Z,13.40
2018-08-23T09:02:40.258Z,13.30
2018-08-23T09:03:40.229Z,13.40
2018-08-23T09:04:40.215Z,12.80
2018-08-23T09:05:40.210Z,12.00
2018-08-23T09:06:40.198Z,12.30
2018-08-23T09:07:40.183Z,11.30
2018-08-23T09:08:40.168Z,11.80
2018-08-23T09:09:40.213Z,12.40
2018-08-23T09:10:40.165Z,12.80
2018-08-23T09:11:40.120Z,12.70
2018-08-23T09:12:40.108Z,12.40
2018-08-23T09:13:40.099Z,14.20
2018-08-23T09:14:40.086Z,12.80
2018-08-23T09:15:40.073Z,13.30
2018-08-23T09:16:40.069Z,12.60
2018-08-23T09:17:40.041Z,13.10
2018-08-23T09:18:40.069Z,12.60
2018-08-23T09:19:40.020Z,12.90
2018-08-23T09:20:40.036Z,12.90
2018-08-23T09:21:39.992Z,12.00
2018-08-23T09:22:39.980Z,11.20
2018-08-23T09:23:39.970Z,11.70
2018-08-23T09:24:39.957Z,12.00
2018-08-23T09:25:39.951Z,11.80
2018-08-23T09:26:39.929Z,11.90
2018-08-23T09:27:39.913Z,13.00
2018-08-23T09:28:39.905Z,11.80
2018-08-23T09:29:39.899Z,11.80
2018-08-23T09:30:39.876Z,12.40
2018-08-23T09:31:39.866Z,12.60
2018-08-23T09:32:39.859Z,13.40
2018-08-23T09:33:39.849Z,12.20
2018-08-23T09:34:39.833Z,12.10
2018-08-23T09:35:39.819Z,11.70
2018-08-23T09:36:39.810Z,11.50
2018-08-23T09:37:39.855Z,11.50
2018-08-23T09:38:39.788Z,11.10
2018-08-23T09:39:39.778Z,11.60
2018-08-23T09:40:39.765Z,11.50
2018-08-23T09:41:39.800Z,11.00
2018-08-23T09:42:39.767Z,11.70
2018-08-23T09:43:39.724Z,11.30
2018-08-23T09:44:39.716Z,10.20
2018-08-23T09:45:39.707Z,10.30
2018-08-23T09:46:39.696Z,10.30
2018-08-23T09:47:39.684Z,9.30
2018-08-23T09:48:39.672Z,9.10
2018-08-23T09:49:39.665Z,9.90
2018-08-23T09:50:39.655Z,9.50
2018-08-23T09:51:39.640Z,9.60
2018-08-23T09:52:39.627Z,9.50
2018-08-23T09:53:39.618Z,9.40
2018-08-23T09:54:39.602Z,8.50
2018-08-23T09:55:39.598Z,8.90
2018-08-23T09:56:39.657Z,9.60
2018-08-23T09:57:39.577Z,9.20
2018-08-23T09:58:39.565Z,8.20
2018-08-23T09:59:39.553Z,8.30
2018-08-23T10:00:39.544Z,8.50
2018-08-23T10:01:39.532Z,9.30
2018-08-23T10:02:39.525Z,8.90
2018-08-23T10:03:39.543Z,9.10
2018-08-23T10:04:39.590Z,9.20
2018-08-23T10:05:39.496Z,9.80
2018-08-23T10:06:39.473Z,10.10
2018-08-23T10:07:39.469Z,9.60
2018-08-23T10:08:39.455Z,10.10
2018-08-23T10:09:39.444Z,10.20
2018-08-23T10:10:39.435Z,9.60
2018-08-23T10:11:39.534Z,9.10
2018-08-23T10:12:39.408Z,9.40
2018-08-23T10:13:39.393Z,8.50
2018-08-23T10:14:39.389Z,8.10
2018-08-23T10:15:39.378Z,8.80
2018-08-23T10:16:39.370Z,8.90
2018-08-23T10:17:39.353Z,8.90
2018-08-23T10:18:39.343Z,9.20
2018-08-23T10:19:39.332Z,8.60
2018-08-23T10:20:39.325Z,8.50
2018-08-23T10:21:39.307Z,9.60
2018-08-23T10:22:39.296Z,9.20
2018-08-23T10:23:39.283Z,10.20
2018-08-23T10:24:39.277Z,9.00
2018-08-23T10:25:39.266Z,9.60
2018-08-23T10:26:39.346Z,8.80
2018-08-23T10:27:39.248Z,9.10
2018-08-23T10:28:39.235Z,8.40
2018-08-23T10:29:39.224Z,9.10
2018-08-23T10:30:39.213Z,8.60
2018-08-23T10:31:39.205Z,10.90
2018-08-23T10:32:39.194Z,10.30
2018-08-23T10:33:39.185Z,9.40
2018-08-23T10:34:39.171Z,9.70
2018-08-23T10:35:39.166Z,9.00
2018-08-23T10:36:39.157Z,8.90
2018-08-23T10:37:39.155Z,9.30
2018-08-23T10:38:39.141Z,9.70
2018-08-23T10:39:39.131Z,8.90
2018-08-23T10:40:39.125Z,8.20
2018-08-23T10:41:39.113Z,8.00
2018-08-23T10:42:39.104Z,9.10
2018-08-23T10:43:39.095Z,8.70
2018-08-23T10:44:39.096Z,7.80
2018-08-23T10:45:39.076Z,8.30
2018-08-23T10:46:39.067Z,8.80
2018-08-23T10:47:39.057Z,9.00
2018-08-23T10:48:39.048Z,8.10
2018-08-23T10:49:39.038Z,8.50
2018-08-23T10:50:39.076Z,8.70
2018-08-23T10:51:39.019Z,9.50
2018-08-23T10:52:39.013Z,8.50
2018-08-23T10:53:39.003Z,9.30
2018-08-23T10:54:38.997Z,9.50
2018-08-23T10:55:38.986Z,9.20
2018-08-23T10:56:38.975Z,9.50
2018-08-23T10:57:38.964Z,8.80
2018-08-23T10:58:38.961Z,8.60
2018-08-23T10:59:38.952Z,8.30
2018-08-23T11:00:38.944Z,8.80
2018-08-23T11:01:38.939Z,8.10
2018-08-23T11:02:38.931Z,8.80
2018-08-23T11:03:38.924Z,8.30
2018-08-23T11:04:38.916Z,8.60
2018-08-23T11:05:38.910Z,8.80
2018-08-23T11:06:38.903Z,8.50
2018-08-23T11:07:38.897Z,7.80
2018-08-23T11:08:38.890Z,8.50
2018-08-23T11:09:38.940Z,9.40
2018-08-23T11:10:38.876Z,8.20
2018-08-23T11:11:38.871Z,9.20
2018-08-23T11:12:38.872Z,8.70
2018-08-23T11:13:38.856Z,8.40
2018-08-23T11:14:38.851Z,7.60
2018-08-23T11:15:38.845Z,9.30
2018-08-23T11:16:38.847Z,8.50
2018-08-23T11:17:38.832Z,8.50
2018-08-23T11:18:38.850Z,9.20
2018-08-23T11:19:38.818Z,9.70
2018-08-23T11:20:38.805Z,9.00
2018-08-23T11:21:38.825Z,8.60
2018-08-23T11:22:38.797Z,8.60
2018-08-23T11:23:38.795Z,9.30
2018-08-23T11:24:38.817Z,9.20
2018-08-23T11:25:38.775Z,9.00
2018-08-23T11:26:38.771Z,8.70
2018-08-23T11:27:38.764Z,8.20
2018-08-23T11:28:38.754Z,8.70
2018-08-23T11:29:38.821Z,8.60
2018-08-23T11:30:38.741Z,7.60
2018-08-23T11:31:38.735Z,9.60
2018-08-23T11:32:38.727Z,10.80
2018-08-23T11:33:38.719Z,10.90
2018-08-23T11:34:38.714Z,10.60
2018-08-23T11:35:38.706Z,9.20
2018-08-23T11:36:38.701Z,9.10
2018-08-23T11:37:38.693Z,8.60
2018-08-23T11:38:38.688Z,8.40
2018-08-23T11:39:38.679Z,8.30
2018-08-23T11:40:38.670Z,9.10
2018-08-23T11:41:38.666Z,8.40
2018-08-23T11:42:38.695Z,8.40
2018-08-23T11:43:38.657Z,9.30
2018-08-23T11:44:38.646Z,8.80
2018-08-23T11:45:38.642Z,10.10
2018-08-23T11:46:38.637Z,9.20
2018-08-23T11:47:38.629Z,9.00
2018-08-23T11:48:38.644Z,10.40
2018-08-23T11:49:38.638Z,11.40
2018-08-23T11:50:38.610Z,10.40
2018-08-23T11:51:38.603Z,10.30
2018-08-23T11:52:38.598Z,10.40
2018-08-23T11:53:38.726Z,9.90
2018-08-23T11:54:38.620Z,9.70
2018-08-23T11:55:38.580Z,9.20
2018-08-23T11:56:38.607Z,8.50
2018-08-23T11:57:38.562Z,8.70
2018-08-23T11:58:38.557Z,8.40
2018-08-23T11:59:38.551Z,7.60
2018-08-23T12:00:38.553Z,9.00
2018-08-23T12:01:38.537Z,9.00
2018-08-23T12:02:38.590Z,9.50
2018-08-23T12:03:38.516Z,9.00
2018-08-23T12:04:38.512Z,8.40
2018-08-23T12:05:38.503Z,10.60
2018-08-23T12:06:38.603Z,10.50
2018-08-23T12:07:38.492Z,10.30
2018-08-23T12:08:38.478Z,10.10
2018-08-23T12:09:38.466Z,9.30
2018-08-23T12:10:38.468Z,9.90
2018-08-23T12:11:38.452Z,7.90
2018-08-23T12:12:38.445Z,9.70
2018-08-23T12:13:38.437Z,9.20
2018-08-23T12:14:38.428Z,9.50
2018-08-23T12:15:38.456Z,8.70
2018-08-23T12:16:38.446Z,8.80
2018-08-23T12:17:38.429Z,8.10
2018-08-23T12:18:38.403Z,8.90
2018-08-23T12:19:38.392Z,8.50
2018-08-23T12:20:38.383Z,8.00
2018-08-23T12:21:38.380Z,8.70
2018-08-23T12:22:38.366Z,8.00
2018-08-23T12:23:38.364Z,7.40
2018-08-23T12:24:38.357Z,7.20
2018-08-23T12:25:38.396Z,6.70
2018-08-23T12:26:38.361Z,7.40
2018-08-23T12:27:38.341Z,8.30
2018-08-23T12:28:38.338Z,7.30
2018-08-23T12:29:38.336Z,7.70
2018-08-23T12:30:38.322Z,7.10
2018-08-23T12:31:38.360Z,7.00
2018-08-23T12:32:38.314Z,7.00
2018-08-23T12:33:38.297Z,7.90
2018-08-23T12:34:38.294Z,7.90
2018-08-23T12:35:38.285Z,7.00
2018-08-23T12:36:38.282Z,7.50
2018-08-23T12:37:38.303Z,8.00
2018-08-23T12:38:38.286Z,9.60
2018-08-23T12:39:38.266Z,9.30
2018-08-23T12:40:38.258Z,9.90
2018-08-23T12:41:38.259Z,9.50
2018-08-23T12:42:38.279Z,9.00
2018-08-23T12:43:38.263Z,9.30
2018-08-23T12:44:38.295Z,8.40
2018-08-23T12:45:38.236Z,9.20
2018-08-23T12:46:38.232Z,8.70
2018-08-23T12:47:38.228Z,8.70
2018-08-23T12:48:38.220Z,8.20
2018-08-23T12:49:38.216Z,9.00
2018-08-23T12:50:38.211Z,9.30
2018-08-23T12:51:38.208Z,8.50
2018-08-23T12:52:38.203Z,10.40
2018-08-23T12:53:38.199Z,8.80
2018-08-23T12:54:38.193Z,8.40
2018-08-23T12:55:38.189Z,8.40
2018-08-23T12:56:38.194Z,8.50
2018-08-23T12:57:38.186Z,8.60
2018-08-23T12:58:38.189Z,8.20